createdAt,value
2018-03-25T00:01:34.711Z,99793.41
2018-03-25T00:04:02.334Z,99793.45
2018-03-25T00:06:29.908Z,99798.27
2018-03-25T00:08:57.484Z,99788.05
2018-03-25T00:11:25.115Z,99792.17
2018-03-25T00:13:52.677Z,99793.53
2018-03-25T00:16:20.250Z,99791.09
2018-03-25T00:18:47.880Z,99789.59
2018-03-25T00:21:15.502Z,99793.66
2018-03-25T00:23:43.061Z,99795.83
2018-03-25T00:26:10.622Z,99796.43
2018-03-25T00:28:38.199Z,99789.45
2018-03-25T00:31:05.780Z,99797.72
2018-03-25T00:33:33.420Z,99800.95
2018-03-25T00:36:00.983Z,99791.03
2018-03-25T00:38:28.666Z,99796.55
2018-03-25T00:40:56.282Z,99796.55
2018-03-25T00:43:23.850Z,99798.61
2018-03-25T00:45:51.487Z,99795.52
2018-03-25T00:48:19.050Z,99795.36
2018-03-25T00:50:46.628Z,99795.63
2018-03-25T00:53:14.246Z,99790.81
2018-03-25T00:55:41.926Z,99799.00
2018-03-25T00:58:09.486Z,99800.32
2018-03-25T01:00:37.108Z,99802.06
2018-03-25T01:03:04.735Z,99808.83
2018-03-25T01:05:32.293Z,99807.45
2018-03-25T01:07:59.863Z,99813.41
2018-03-25T01:10:27.483Z,99815.10
2018-03-25T01:12:55.171Z,99820.76
2018-03-25T01:15:22.801Z,99821.62
2018-03-25T01:17:50.424Z,99810.25
2018-03-25T01:20:17.995Z,99816.95
2018-03-25T01:22:45.557Z,99812.55
2018-03-25T01:25:13.187Z,99814.12
2018-03-25T01:27:40.761Z,99808.59
2018-03-25T01:30:08.437Z,99811.28
2018-03-25T01:32:36.108Z,99813.77
2018-03-25T01:35:03.657Z,99815.25
2018-03-25T01:37:31.227Z,99819.91
2018-03-25T01:39:58.786Z,99817.63
2018-03-25T01:42:26.354Z,99817.73
2018-03-25T01:44:53.914Z,99821.77
2018-03-25T01:47:21.586Z,99820.38
2018-03-25T01:49:49.210Z,99819.79
2018-03-25T01:52:16.772Z,99821.11
2018-03-25T01:54:44.403Z,99822.00
2018-03-25T01:57:12.304Z,99823.27
2018-03-25T01:59:39.872Z,99825.61
2018-03-25T02:02:07.448Z,99822.84
2018-03-25T02:04:35.075Z,99827.44
2018-03-25T02:07:02.637Z,99823.68
2018-03-25T02:09:30.194Z,99828.92
2018-03-25T02:11:57.765Z,99827.48
2018-03-25T02:14:25.330Z,99829.16
2018-03-25T02:16:52.916Z,99822.85
2018-03-25T02:19:20.510Z,99823.27
2018-03-25T02:21:48.118Z,99825.86
2018-03-25T02:24:15.674Z,99828.99
2018-03-25T02:26:43.295Z,99818.34
2018-03-25T02:29:10.866Z,99819.66
2018-03-25T02:31:38.427Z,99824.59
2018-03-25T02:34:06.064Z,99829.11
2018-03-25T02:36:33.622Z,99830.07
2018-03-25T02:39:01.312Z,99837.11
2018-03-25T02:41:28.866Z,99835.00
2018-03-25T02:43:56.427Z,99840.31
2018-03-25T02:46:24.013Z,99837.54
2018-03-25T02:48:51.573Z,99838.18
2018-03-25T02:51:19.203Z,99839.45
2018-03-25T02:53:46.826Z,99844.74
2018-03-25T02:56:14.496Z,99844.45
2018-03-25T02:58:42.125Z,99843.19
2018-03-25T03:01:09.747Z,99836.27
2018-03-25T03:03:37.445Z,99842.24
2018-03-25T03:06:05.065Z,99849.77
2018-03-25T03:08:32.707Z,99852.16
2018-03-25T03:11:00.275Z,99850.75
2018-03-25T03:13:27.895Z,99852.91
2018-03-25T03:15:55.458Z,99859.19
2018-03-25T03:18:23.013Z,99860.08
2018-03-25T03:20:50.574Z,99858.53
2018-03-25T03:23:18.135Z,99856.73
2018-03-25T03:25:45.723Z,99852.81
2018-03-25T03:28:13.346Z,99861.23
2018-03-25T03:30:40.963Z,99860.39
2018-03-25T03:33:08.526Z,99853.23
2018-03-25T03:35:36.147Z,99862.81
2018-03-25T03:38:03.789Z,99866.11
2018-03-25T03:40:31.349Z,99865.16
2018-03-25T03:42:58.914Z,99862.84
2018-03-25T03:45:26.475Z,99873.02
2018-03-25T03:47:54.085Z,99869.04
2018-03-25T03:50:21.646Z,99873.32
2018-03-25T03:52:49.211Z,99871.16
2018-03-25T03:55:16.842Z,99877.52
2018-03-25T03:57:44.406Z,99883.34
2018-03-25T04:00:11.978Z,99889.04
2018-03-25T04:02:39.538Z,99887.34
2018-03-25T04:05:07.154Z,99891.45
2018-03-25T04:07:34.715Z,99888.27
2018-03-25T04:10:02.278Z,99890.78
2018-03-25T04:12:29.921Z,99890.02
2018-03-25T04:14:57.550Z,99891.71
2018-03-25T04:17:25.122Z,99896.38
2018-03-25T04:19:52.719Z,99899.90
2018-03-25T04:22:20.392Z,99894.06
2018-03-25T04:24:47.965Z,99898.34
2018-03-25T04:27:15.522Z,99894.89
2018-03-25T04:29:43.104Z,99913.64
2018-03-25T04:32:10.675Z,99916.33
2018-03-25T04:34:38.303Z,99905.39
2018-03-25T04:37:05.936Z,99917.50
2018-03-25T04:39:33.562Z,99915.28
2018-03-25T04:42:01.123Z,99922.56
2018-03-25T04:44:28.742Z,99926.71
2018-03-25T04:46:56.324Z,99927.67
2018-03-25T04:49:23.947Z,99932.95
2018-03-25T04:51:51.628Z,99945.97
2018-03-25T04:54:19.191Z,99946.81
2018-03-25T04:56:46.757Z,99947.48
2018-03-25T04:59:14.322Z,99956.95
2018-03-25T05:01:41.877Z,99950.15
2018-03-25T05:04:09.497Z,99954.50
2018-03-25T05:06:37.099Z,99957.06
2018-03-25T05:09:04.743Z,99954.09
2018-03-25T05:11:32.309Z,99958.24
2018-03-25T05:13:59.870Z,99944.53
2018-03-25T05:16:27.482Z,99946.34
2018-03-25T05:18:55.038Z,99947.90
2018-03-25T05:21:22.674Z,99956.34
2018-03-25T05:23:50.243Z,99947.91
2018-03-25T05:26:17.868Z,99950.53
2018-03-25T05:28:45.442Z,99961.47
2018-03-25T05:31:13.013Z,99967.64
2018-03-25T05:33:40.709Z,99964.23
2018-03-25T05:36:08.330Z,99964.09
2018-03-25T05:38:35.893Z,99961.45
2018-03-25T05:41:03.465Z,99961.22
2018-03-25T05:43:31.027Z,99959.40
2018-03-25T05:45:58.710Z,99961.42
2018-03-25T05:48:26.271Z,99963.42
2018-03-25T05:50:53.833Z,99966.08
2018-03-25T05:53:21.471Z,99960.97
2018-03-25T05:55:49.030Z,99963.95
2018-03-25T05:58:16.707Z,99959.05
2018-03-25T06:00:44.266Z,99968.63
2018-03-25T06:03:11.826Z,99967.45
2018-03-25T06:05:39.394Z,99969.39
2018-03-25T06:08:06.965Z,99971.22
2018-03-25T06:10:34.534Z,99972.23
2018-03-25T06:13:02.155Z,99973.23
2018-03-25T06:15:29.844Z,99972.75
2018-03-25T06:17:57.407Z,99979.14
2018-03-25T06:20:24.967Z,99980.12
2018-03-25T06:22:52.533Z,99977.13
2018-03-25T06:25:20.102Z,99971.80
2018-03-25T06:27:47.735Z,99967.21
2018-03-25T06:30:15.303Z,99975.51
2018-03-25T06:32:42.875Z,99977.02
2018-03-25T06:35:10.435Z,99976.11
2018-03-25T06:37:38.047Z,99975.89
2018-03-25T06:40:05.605Z,99971.52
2018-03-25T06:42:33.197Z,99971.75
2018-03-25T06:45:00.778Z,99975.19
2018-03-25T06:47:28.404Z,99984.86
2018-03-25T06:49:55.970Z,99990.67
2018-03-25T06:52:23.552Z,99991.42
2018-03-25T06:54:51.182Z,99994.78
2018-03-25T06:57:18.806Z,99996.61
2018-03-25T06:59:46.439Z,99997.36
2018-03-25T07:02:14.072Z,100001.62
2018-03-25T07:04:41.705Z,100012.18
2018-03-25T07:07:09.267Z,100024.50
2018-03-25T07:09:36.845Z,100027.80
2018-03-25T07:12:04.417Z,100032.47
2018-03-25T07:14:32.148Z,100033.17
2018-03-25T07:16:59.714Z,100029.72
2018-03-25T07:19:27.286Z,100032.22
2018-03-25T07:21:54.864Z,100036.69
2018-03-25T07:24:22.426Z,100040.23
2018-03-25T07:26:50.119Z,100043.87
2018-03-25T07:29:17.679Z,100040.83
2018-03-25T07:31:45.242Z,100036.64
2018-03-25T07:34:12.830Z,100042.23
2018-03-25T07:36:40.459Z,100048.84
2018-03-25T07:39:08.114Z,100045.19
2018-03-25T07:41:35.736Z,100039.52
2018-03-25T07:44:03.393Z,100040.21
2018-03-25T07:46:31.020Z,100044.42
2018-03-25T07:48:58.655Z,100044.58
2018-03-25T07:51:26.261Z,100044.50
2018-03-25T07:53:53.829Z,100039.47
2018-03-25T07:56:21.403Z,100042.76
2018-03-25T07:58:48.969Z,100040.77
2018-03-25T08:01:16.548Z,100039.46
2018-03-25T08:03:44.114Z,100043.14
2018-03-25T08:06:11.750Z,100039.58
2018-03-25T08:08:39.338Z,100048.16
2018-03-25T08:11:06.898Z,100054.23
2018-03-25T08:13:34.476Z,100054.99
2018-03-25T08:16:02.065Z,100057.91
2018-03-25T08:18:29.654Z,100047.03
2018-03-25T08:20:57.236Z,100051.47
2018-03-25T08:23:24.858Z,100047.42
2018-03-25T08:25:52.426Z,100051.82
2018-03-25T08:28:20.066Z,100042.50
2018-03-25T08:30:47.639Z,100045.56
2018-03-25T08:33:15.211Z,100048.82
2018-03-25T08:35:42.786Z,100047.22
2018-03-25T08:38:10.354Z,100052.84
2018-03-25T08:40:37.973Z,100050.09
2018-03-25T08:43:05.599Z,100044.70
2018-03-25T08:45:33.166Z,100051.33
2018-03-25T08:48:00.814Z,100042.72
2018-03-25T08:50:28.439Z,100045.16
2018-03-25T08:52:56.074Z,100048.36
2018-03-25T08:55:23.648Z,100046.68
2018-03-25T08:57:51.310Z,100047.13
2018-03-25T09:00:18.975Z,100045.39
2018-03-25T09:02:46.610Z,100041.85
2018-03-25T09:05:14.250Z,100044.64
2018-03-25T09:07:41.875Z,100046.67
2018-03-25T09:10:09.511Z,100038.43
2018-03-25T09:12:37.090Z,100043.31
2018-03-25T09:15:04.729Z,100040.53
2018-03-25T09:17:32.303Z,100034.28
2018-03-25T09:19:59.879Z,100041.61
2018-03-25T09:22:27.454Z,100048.89
2018-03-25T09:24:55.083Z,100040.41
2018-03-25T09:27:22.750Z,100035.57
2018-03-25T09:29:50.377Z,100044.47
2018-03-25T09:32:17.946Z,100051.59
2018-03-25T09:34:45.586Z,100053.16
2018-03-25T09:37:13.245Z,100060.56
2018-03-25T09:39:40.888Z,100056.78
2018-03-25T09:42:08.456Z,100052.90
2018-03-25T09:44:36.112Z,100058.02
2018-03-25T09:47:03.693Z,100053.01
2018-03-25T09:49:31.274Z,100054.68
2018-03-25T09:51:58.932Z,100054.16
2018-03-25T09:54:26.517Z,100046.81
2018-03-25T09:56:54.117Z,100051.63
2018-03-25T09:59:21.676Z,100049.14
2018-03-25T10:01:54.879Z,100051.06
2018-03-25T10:04:22.463Z,100056.19
2018-03-25T10:06:50.041Z,100057.47
2018-03-25T10:09:17.690Z,100054.31
2018-03-25T10:11:45.262Z,100054.92
2018-03-25T10:14:12.858Z,100051.00
2018-03-25T10:26:24.598Z,100032.77
2018-03-25T10:32:26.043Z,100034.70
2018-03-25T10:34:53.723Z,100035.49
2018-03-25T10:37:21.336Z,100034.19
2018-03-25T10:39:48.909Z,100035.56
2018-03-25T10:42:16.504Z,100027.03
2018-03-25T10:44:44.138Z,100012.43
2018-03-25T10:47:11.731Z,100013.48
2018-03-25T10:53:15.247Z,100010.20
2018-03-25T10:56:42.920Z,100005.89
2018-03-25T10:59:10.582Z,100005.05
2018-03-25T11:01:38.154Z,100001.77
2018-03-25T11:04:05.857Z,100010.78
2018-03-25T11:06:33.605Z,100005.57
2018-03-25T11:09:01.239Z,100001.05
2018-03-25T11:11:28.824Z,100000.89
2018-03-25T11:13:56.395Z,99994.48
2018-03-25T11:16:23.970Z,100001.34
2018-03-25T11:18:51.556Z,100000.77
2018-03-25T11:21:19.259Z,99995.03
2018-03-25T11:23:46.872Z,99980.38
2018-03-25T11:26:15.263Z,99985.30
2018-03-25T11:28:42.861Z,99984.47
2018-03-25T11:31:10.495Z,99986.73
2018-03-25T11:33:38.068Z,99985.04
2018-03-25T11:36:05.629Z,99985.78
2018-03-25T11:38:33.875Z,99983.06
2018-03-25T11:41:01.501Z,99980.20
2018-03-25T11:43:29.065Z,99981.44
2018-03-25T11:45:56.656Z,99972.47
2018-03-25T11:48:24.227Z,99970.96
2018-03-25T11:50:51.857Z,99965.06
2018-03-25T11:53:19.437Z,99952.00
2018-03-25T11:55:47.058Z,99948.33
2018-03-25T11:58:14.678Z,99949.58
2018-03-25T12:00:42.240Z,99947.52
2018-03-25T12:03:09.806Z,99950.66
2018-03-25T12:05:37.366Z,99946.16
2018-03-25T12:08:05.008Z,99936.87
2018-03-25T12:10:32.578Z,99939.04
2018-03-25T12:13:00.183Z,99940.12
2018-03-25T12:15:27.759Z,99932.41
2018-03-25T12:17:55.388Z,99930.75
2018-03-25T12:20:22.953Z,99926.66
2018-03-25T12:22:50.586Z,99927.82
2018-03-25T12:25:18.165Z,99934.97
2018-03-25T12:27:45.741Z,99927.41
2018-03-25T12:30:13.378Z,99927.48
2018-03-25T12:32:41.714Z,99920.11
2018-03-25T12:35:09.287Z,99920.20
2018-03-25T12:37:36.919Z,99923.92
2018-03-25T12:40:04.608Z,99925.82
2018-03-25T12:42:33.818Z,99926.47
2018-03-25T12:45:01.407Z,99936.03
2018-03-25T12:47:28.981Z,99932.39
2018-03-25T12:49:56.657Z,99925.45
2018-03-25T12:52:24.238Z,99924.17
2018-03-25T12:54:52.457Z,99919.36
2018-03-25T12:57:20.031Z,99920.27
2018-03-25T12:59:47.599Z,99915.63
2018-03-25T13:02:15.283Z,99910.72
2018-03-25T13:04:43.377Z,99912.77
2018-03-25T13:07:10.940Z,99914.38
2018-03-25T13:09:38.519Z,99910.14
2018-03-25T13:12:06.144Z,99902.05
2018-03-25T13:14:33.738Z,99903.37
2018-03-25T13:17:01.321Z,99900.39
2018-03-25T13:19:28.919Z,99900.19
2018-03-25T13:21:57.468Z,99900.75
2018-03-25T13:24:25.112Z,99894.78
2018-03-25T13:26:52.678Z,99898.03
2018-03-25T13:29:20.249Z,99904.49
2018-03-25T13:31:47.828Z,99898.34
2018-03-25T13:34:15.399Z,99905.05
2018-03-25T13:36:43.041Z,99903.33
2018-03-25T13:39:10.625Z,99903.37
2018-03-25T13:41:38.250Z,99907.42
2018-03-25T13:44:05.884Z,99912.13
2018-03-25T13:46:33.583Z,99901.47
2018-03-25T13:49:01.160Z,99908.33
2018-03-25T13:51:28.747Z,99909.88
2018-03-25T13:53:56.413Z,99911.28
2018-03-25T13:56:23.978Z,99911.59
2018-03-25T13:58:51.633Z,99912.64
2018-03-25T14:01:19.203Z,99916.78
2018-03-25T14:03:46.781Z,99918.17
2018-03-25T14:06:14.399Z,99918.16
2018-03-25T14:08:42.039Z,99914.77
2018-03-25T14:11:10.763Z,99917.48
2018-03-25T14:13:38.330Z,99919.60
2018-03-25T14:16:05.906Z,99912.23
2018-03-25T14:18:33.542Z,99906.53
2018-03-25T14:21:01.109Z,99908.41
2018-03-25T14:23:28.671Z,99905.02
2018-03-25T14:25:56.243Z,99907.60
2018-03-25T14:28:23.872Z,99902.34
2018-03-25T14:30:51.560Z,99898.06
2018-03-25T14:33:19.191Z,99911.08
2018-03-25T14:35:46.767Z,99906.41
2018-03-25T14:38:14.583Z,99896.55
2018-03-25T14:40:42.155Z,99897.85
2018-03-25T14:43:09.787Z,99898.70
2018-03-25T14:45:37.368Z,99897.05
2018-03-25T14:48:04.942Z,99892.43
2018-03-25T14:50:32.567Z,99897.03
2018-03-25T14:53:00.183Z,99900.81
2018-03-25T14:55:27.807Z,99910.36
2018-03-25T14:57:55.392Z,99907.08
2018-03-25T15:00:23.039Z,99900.22
2018-03-25T15:02:51.387Z,99902.30
2018-03-25T15:05:18.967Z,99895.02
2018-03-25T15:07:46.535Z,99896.44
2018-03-25T15:10:14.106Z,99888.31
2018-03-25T15:12:41.694Z,99894.84
2018-03-25T15:15:09.274Z,99890.33
2018-03-25T15:17:36.856Z,99892.27
2018-03-25T15:20:04.534Z,99894.26
2018-03-25T15:22:32.113Z,99893.77
2018-03-25T15:24:59.760Z,99893.60
2018-03-25T15:27:27.398Z,99904.92
2018-03-25T15:29:54.966Z,99909.78
2018-03-25T15:32:22.632Z,99906.68
2018-03-25T15:34:50.260Z,99910.42
2018-03-25T15:37:17.966Z,99909.91
2018-03-25T15:39:45.604Z,99904.25
2018-03-25T15:42:13.216Z,99905.34
2018-03-25T15:44:41.365Z,99913.61
2018-03-25T15:47:08.934Z,99916.27
2018-03-25T15:49:36.551Z,99913.90
2018-03-25T15:52:04.186Z,99906.88
2018-03-25T15:54:31.799Z,99905.36
2018-03-25T15:56:59.452Z,99906.66
2018-03-25T15:59:27.021Z,99915.70
2018-03-25T16:01:54.654Z,99913.01
2018-03-25T16:04:22.233Z,99901.28
2018-03-25T16:06:50.346Z,99901.95
2018-03-25T16:09:17.932Z,99902.84
2018-03-25T16:11:45.507Z,99902.83
2018-03-25T16:14:13.080Z,99902.23
2018-03-25T16:16:40.770Z,99912.84
2018-03-25T16:19:08.353Z,99917.42
2018-03-25T16:21:35.924Z,99906.98
2018-03-25T16:24:03.503Z,99911.53
2018-03-25T16:26:31.140Z,99908.81
2018-03-25T16:28:58.772Z,99900.70
2018-03-25T16:31:26.343Z,99909.68
2018-03-25T16:33:53.941Z,99911.06
2018-03-25T16:36:21.574Z,99914.20
2018-03-25T16:38:49.242Z,99915.25
2018-03-25T16:41:16.878Z,99920.52
2018-03-25T16:43:44.462Z,99913.11
2018-03-25T16:46:12.109Z,99916.17
2018-03-25T16:48:39.703Z,99916.80
2018-03-25T16:51:07.446Z,99907.98
2018-03-25T16:53:35.252Z,99919.58
2018-03-25T16:56:02.827Z,99916.38
2018-03-25T16:58:30.492Z,99914.51
2018-03-25T17:00:58.125Z,99913.55
2018-03-25T17:03:25.709Z,99908.50
2018-03-25T17:05:53.339Z,99917.20
2018-03-25T17:08:20.931Z,99911.33
2018-03-25T17:10:48.504Z,99909.77
2018-03-25T17:13:16.145Z,99914.68
2018-03-25T17:15:43.717Z,99922.80
2018-03-25T17:18:11.335Z,99910.88
2018-03-25T17:20:38.968Z,99913.25
2018-03-25T17:23:06.615Z,99919.08
2018-03-25T17:25:34.246Z,99916.67
2018-03-25T17:28:01.816Z,99918.98
2018-03-25T17:30:29.400Z,99916.75
2018-03-25T17:32:56.971Z,99915.81
2018-03-25T17:35:24.655Z,99915.46
2018-03-25T17:37:52.241Z,99923.58
2018-03-25T17:40:19.816Z,99925.11
2018-03-25T17:42:47.452Z,99938.44
2018-03-25T17:45:15.018Z,99942.81
2018-03-25T17:47:42.601Z,99943.41
2018-03-25T17:50:10.239Z,99947.47
2018-03-25T17:52:37.852Z,99942.98
2018-03-25T17:55:05.488Z,99948.83
2018-03-25T17:57:33.068Z,99957.92
2018-03-25T18:00:00.646Z,99956.03
2018-03-25T18:02:28.220Z,99956.45
2018-03-25T18:04:55.808Z,99965.64
2018-03-25T18:07:23.369Z,99960.80
2018-03-25T18:09:51.008Z,99960.25
2018-03-25T18:12:18.583Z,99958.69
2018-03-25T18:14:46.271Z,99965.85
2018-03-25T18:17:33.465Z,99965.43
2018-03-25T18:19:41.542Z,99960.37
2018-03-25T18:22:09.127Z,99957.22
2018-03-25T18:24:37.402Z,99958.27
2018-03-25T18:27:05.035Z,99963.53
2018-03-25T18:29:32.615Z,99956.81
2018-03-25T18:32:00.235Z,99962.70
2018-03-25T18:34:27.863Z,99966.55
2018-03-25T18:36:55.435Z,99965.86
2018-03-25T18:39:23.083Z,99959.27
2018-03-25T18:41:50.712Z,99962.20
2018-03-25T18:44:18.291Z,99963.33
2018-03-25T18:46:45.880Z,99958.57
2018-03-25T18:49:13.487Z,99959.95
2018-03-25T18:51:41.090Z,99956.88
2018-03-25T18:54:09.320Z,99961.87
2018-03-25T18:56:36.951Z,99948.66
2018-03-25T18:59:04.530Z,99952.38
2018-03-25T19:01:32.131Z,99945.02
2018-03-25T19:03:59.700Z,99945.45
2018-03-25T19:06:27.304Z,99950.13
2018-03-25T19:08:54.878Z,99947.75
2018-03-25T19:11:22.520Z,99938.78
2018-03-25T19:13:50.106Z,99944.06
2018-03-25T19:16:17.812Z,99939.21
2018-03-25T19:18:45.439Z,99938.09
2018-03-25T19:21:13.075Z,99942.44
2018-03-25T19:23:40.654Z,99939.08
2018-03-25T19:26:08.284Z,99943.23
2018-03-25T19:28:35.872Z,99941.03
2018-03-25T19:31:03.523Z,99937.12
2018-03-25T19:33:31.171Z,99937.59
2018-03-25T19:35:58.824Z,99938.09
2018-03-25T19:38:26.446Z,99933.52
2018-03-25T19:40:54.017Z,99925.72
2018-03-25T19:43:21.660Z,99925.23
2018-03-25T19:45:49.253Z,99928.44
2018-03-25T19:48:16.816Z,99929.73
2018-03-25T19:50:44.416Z,99924.05
2018-03-25T19:53:12.057Z,99927.27
2018-03-25T19:55:39.714Z,99924.39
2018-03-25T19:58:07.281Z,99925.33
2018-03-25T20:00:34.902Z,99931.49
2018-03-25T20:03:02.506Z,99935.02
2018-03-25T20:05:30.135Z,99932.41
2018-03-25T20:07:57.842Z,99935.91
2018-03-25T20:10:25.441Z,99929.33
2018-03-25T20:12:53.031Z,99930.38
2018-03-25T20:15:20.653Z,99930.11
2018-03-25T20:17:48.237Z,99927.42
2018-03-25T20:20:15.872Z,99936.28
2018-03-25T20:22:43.562Z,99933.46
2018-03-25T20:25:11.129Z,99933.11
2018-03-25T20:27:38.694Z,99924.53
2018-03-25T20:30:06.266Z,99933.16
2018-03-25T20:32:33.856Z,99923.77
2018-03-25T20:35:01.505Z,99921.42
2018-03-25T20:37:29.088Z,99912.38
2018-03-25T20:39:56.679Z,99903.27
2018-03-25T20:42:24.351Z,99908.15
2018-03-25T20:44:52.031Z,99906.72
2018-03-25T20:47:19.595Z,99906.72
2018-03-25T20:49:47.167Z,99909.45
2018-03-25T20:52:14.738Z,99910.52
2018-03-25T20:54:42.367Z,99903.60
2018-03-25T20:57:09.944Z,99905.14
2018-03-25T20:59:37.584Z,99905.98
2018-03-25T21:02:05.238Z,99896.90
2018-03-25T21:04:32.864Z,99896.80
2018-03-25T21:07:00.494Z,99896.37
2018-03-25T21:09:28.065Z,99891.56
2018-03-25T21:11:55.722Z,99887.52
2018-03-25T21:14:23.359Z,99881.61
2018-03-25T21:16:50.979Z,99884.28
2018-03-25T21:19:18.541Z,99881.06
2018-03-25T21:21:46.103Z,99883.13
2018-03-25T21:24:13.792Z,99879.23
2018-03-25T21:26:41.415Z,99881.34
2018-03-25T21:29:09.090Z,99866.43
2018-03-25T21:31:36.774Z,99868.65
2018-03-25T21:34:04.374Z,99866.82
2018-03-25T21:36:31.950Z,99859.24
2018-03-25T21:38:59.566Z,99854.33
2018-03-25T21:41:27.212Z,99847.03
2018-03-25T21:43:54.774Z,99852.16
2018-03-25T21:46:22.342Z,99848.75
2018-03-25T21:48:49.918Z,99840.61
2018-03-25T21:51:17.486Z,99837.70
2018-03-25T21:53:45.050Z,99845.20
2018-03-25T21:56:12.618Z,99843.23
2018-03-25T21:58:40.201Z,99838.99
2018-03-25T22:01:07.803Z,99830.98
2018-03-25T22:03:35.408Z,99828.95
2018-03-25T22:06:03.035Z,99828.80
2018-03-25T22:08:30.599Z,99821.16
2018-03-25T22:10:58.240Z,99814.66
2018-03-25T22:13:25.868Z,99818.80
2018-03-25T22:15:53.438Z,99812.40
2018-03-25T22:21:20.842Z,99813.11
2018-03-25T22:23:48.470Z,99805.85
2018-03-25T22:26:16.056Z,99806.34
2018-03-25T22:28:43.626Z,99797.59
2018-03-25T22:31:11.256Z,99795.49
2018-03-25T22:33:38.898Z,99795.06
2018-03-25T22:36:06.471Z,99787.17
2018-03-25T22:38:34.128Z,99781.37
2018-03-25T22:41:01.699Z,99785.59
2018-03-25T22:43:29.278Z,99787.89
2018-03-25T22:45:56.903Z,99784.59
2018-03-25T22:48:24.466Z,99783.42
2018-03-25T22:50:52.112Z,99784.28
2018-03-25T22:53:19.731Z,99792.07
2018-03-25T22:55:47.299Z,99787.18
2018-03-25T22:58:14.938Z,99784.09
2018-03-25T23:00:42.566Z,99777.81
2018-03-25T23:03:10.137Z,99778.18
2018-03-25T23:05:37.702Z,99771.59
2018-03-25T23:08:05.335Z,99771.22
2018-03-25T23:10:32.973Z,99771.57
2018-03-25T23:13:00.643Z,99774.17
2018-03-25T23:15:28.210Z,99771.23
2018-03-25T23:17:55.771Z,99762.58
2018-03-25T23:20:23.347Z,99769.00
2018-03-25T23:22:50.924Z,99769.34
2018-03-25T23:25:18.558Z,99767.17
2018-03-25T23:27:46.183Z,99765.48
2018-03-25T23:30:13.810Z,99752.73
2018-03-25T23:32:41.386Z,99756.97
2018-03-25T23:35:09.762Z,99746.66
2018-03-25T23:37:37.334Z,99749.03
2018-03-25T23:40:04.897Z,99744.75
2018-03-25T23:42:32.467Z,99741.05
2018-03-25T23:45:00.088Z,99741.10
2018-03-25T23:47:27.646Z,99744.98
2018-03-25T23:49:55.273Z,99733.30
2018-03-25T23:52:22.902Z,99733.44
2018-03-25T23:54:50.467Z,99733.09
2018-03-25T23:57:18.033Z,99721.73
2018-03-25T23:59:45.603Z,99726.34
